sensor_id;sensor_type;location;lat;lon;timestamp;temperature;humidity
36652;DHT22;53334;51.976;20.144;2022-08-21T00:00:28;27.90;59.60
36652;DHT22;53334;51.976;20.144;2022-08-21T00:03:05;27.90;59.60
36652;DHT22;53334;51.976;20.144;2022-08-21T00:05:42;27.90;59.60
36652;DHT22;53334;51.976;20.144;2022-08-21T00:08:17;27.90;59.60
36652;DHT22;53334;51.976;20.144;2022-08-21T00:10:51;27.90;59.60
36652;DHT22;53334;51.976;20.144;2022-08-21T00:13:25;27.90;59.60
36652;DHT22;53334;51.976;20.144;2022-08-21T00:16:01;27.90;59.60
36652;DHT22;53334;51.976;20.144;2022-08-21T00:18:36;27.90;59.60
36652;DHT22;53334;51.976;20.144;2022-08-21T00:21:11;27.90;60.10
36652;DHT22;53334;51.976;20.144;2022-08-21T00:23:45;27.90;59.60
36652;DHT22;53334;51.976;20.144;2022-08-21T00:26:19;27.90;59.60
36652;DHT22;53334;51.976;20.144;2022-08-21T00:28:53;27.90;59.60
36652;DHT22;53334;51.976;20.144;2022-08-21T00:31:31;27.90;59.50
36652;DHT22;53334;51.976;20.144;2022-08-21T00:34:06;27.90;59.50
36652;DHT22;53334;51.976;20.144;2022-08-21T00:36:40;27.90;59.50
36652;DHT22;53334;51.976;20.144;2022-08-21T00:39:14;27.90;59.50
36652;DHT22;53334;51.976;20.144;2022-08-21T00:41:48;27.90;59.50
36652;DHT22;53334;51.976;20.144;2022-08-21T00:44:22;27.90;59.50
36652;DHT22;53334;51.976;20.144;2022-08-21T00:46:58;27.90;59.50
36652;DHT22;53334;51.976;20.144;2022-08-21T00:49:32;27.90;59.50
36652;DHT22;53334;51.976;20.144;2022-08-21T00:52:09;27.90;59.60
36652;DHT22;53334;51.976;20.144;2022-08-21T00:54:44;27.90;59.60
36652;DHT22;53334;51.976;20.144;2022-08-21T00:57:22;27.90;59.50
36652;DHT22;53334;51.976;20.144;2022-08-21T01:00:00;27.90;59.50
36652;DHT22;53334;51.976;20.144;2022-08-21T01:02:38;27.90;59.50
36652;DHT22;53334;51.976;20.144;2022-08-21T01:05:12;27.90;59.50
36652;DHT22;53334;51.976;20.144;2022-08-21T01:07:47;27.90;59.50
36652;DHT22;53334;51.976;20.144;2022-08-21T01:10:21;27.90;59.50
36652;DHT22;53334;51.976;20.144;2022-08-21T01:12:56;27.90;59.50
36652;DHT22;53334;51.976;20.144;2022-08-21T01:15:34;27.90;59.50
36652;DHT22;53334;51.976;20.144;2022-08-21T01:18:11;27.90;59.50
36652;DHT22;53334;51.976;20.144;2022-08-21T01:21:03;27.90;59.50
36652;DHT22;53334;51.976;20.144;2022-08-21T01:23:40;27.90;59.50
36652;DHT22;53334;51.976;20.144;2022-08-21T01:26:17;27.90;59.50
36652;DHT22;53334;51.976;20.144;2022-08-21T01:28:55;27.90;59.50
36652;DHT22;53334;51.976;20.144;2022-08-21T01:31:31;27.90;59.50
36652;DHT22;53334;51.976;20.144;2022-08-21T01:34:06;27.90;59.50
36652;DHT22;53334;51.976;20.144;2022-08-21T01:36:45;27.90;59.50
36652;DHT22;53334;51.976;20.144;2022-08-21T01:39:19;27.90;59.50
36652;DHT22;53334;51.976;20.144;2022-08-21T01:41:53;27.90;59.50
36652;DHT22;53334;51.976;20.144;2022-08-21T01:44:28;27.90;59.50
36652;DHT22;53334;51.976;20.144;2022-08-21T01:47:05;27.90;59.50
36652;DHT22;53334;51.976;20.144;2022-08-21T01:49:40;27.90;59.50
36652;DHT22;53334;51.976;20.144;2022-08-21T01:52:16;27.90;59.50
36652;DHT22;53334;51.976;20.144;2022-08-21T01:54:51;27.90;59.50
36652;DHT22;53334;51.976;20.144;2022-08-21T01:57:27;27.90;59.50
36652;DHT22;53334;51.976;20.144;2022-08-21T02:00:03;27.90;59.50
36652;DHT22;53334;51.976;20.144;2022-08-21T02:02:43;27.90;59.50
36652;DHT22;53334;51.976;20.144;2022-08-21T02:05:17;27.90;59.50
36652;DHT22;53334;51.976;20.144;2022-08-21T02:07:54;27.90;59.50
36652;DHT22;53334;51.976;20.144;2022-08-21T02:10:30;27.90;59.50
36652;DHT22;53334;51.976;20.144;2022-08-21T02:13:05;27.90;59.50
36652;DHT22;53334;51.976;20.144;2022-08-21T02:15:44;27.90;59.50
36652;DHT22;53334;51.976;20.144;2022-08-21T02:18:18;27.90;59.50
36652;DHT22;53334;51.976;20.144;2022-08-21T02:20:53;27.90;59.50
36652;DHT22;53334;51.976;20.144;2022-08-21T02:23:29;27.90;59.50
36652;DHT22;53334;51.976;20.144;2022-08-21T02:26:05;27.90;59.50
36652;DHT22;53334;51.976;20.144;2022-08-21T02:28:40;27.90;59.50
36652;DHT22;53334;51.976;20.144;2022-08-21T02:31:14;27.90;59.50
36652;DHT22;53334;51.976;20.144;2022-08-21T02:33:48;27.90;59.50
36652;DHT22;53334;51.976;20.144;2022-08-21T02:36:23;27.90;59.50
36652;DHT22;53334;51.976;20.144;2022-08-21T02:38:58;27.90;59.50
36652;DHT22;53334;51.976;20.144;2022-08-21T02:41:32;27.90;59.50
36652;DHT22;53334;51.976;20.144;2022-08-21T02:44:09;27.90;59.40
36652;DHT22;53334;51.976;20.144;2022-08-21T02:46:42;27.90;59.40
36652;DHT22;53334;51.976;20.144;2022-08-21T02:49:17;27.90;59.40
36652;DHT22;53334;51.976;20.144;2022-08-21T02:51:51;28.00;59.50
36652;DHT22;53334;51.976;20.144;2022-08-21T02:54:26;27.90;59.40
36652;DHT22;53334;51.976;20.144;2022-08-21T02:57:00;28.00;59.50
36652;DHT22;53334;51.976;20.144;2022-08-21T02:59:34;27.90;59.40
36652;DHT22;53334;51.976;20.144;2022-08-21T03:02:08;27.90;59.40
36652;DHT22;53334;51.976;20.144;2022-08-21T03:04:47;27.90;59.40
36652;DHT22;53334;51.976;20.144;2022-08-21T03:07:21;27.90;59.40
36652;DHT22;53334;51.976;20.144;2022-08-21T03:09:56;28.00;59.40
36652;DHT22;53334;51.976;20.144;2022-08-21T03:12:31;27.90;59.40
36652;DHT22;53334;51.976;20.144;2022-08-21T03:15:15;27.90;59.40
36652;DHT22;53334;51.976;20.144;2022-08-21T03:17:50;27.90;59.30
36652;DHT22;53334;51.976;20.144;2022-08-21T03:20:27;27.90;59.30
36652;DHT22;53334;51.976;20.144;2022-08-21T03:23:04;27.90;59.30
36652;DHT22;53334;51.976;20.144;2022-08-21T03:25:47;27.90;59.30
36652;DHT22;53334;51.976;20.144;2022-08-21T03:28:22;28.00;59.40
36652;DHT22;53334;51.976;20.144;2022-08-21T03:30:56;27.90;59.30
36652;DHT22;53334;51.976;20.144;2022-08-21T03:33:30;27.90;59.30
36652;DHT22;53334;51.976;20.144;2022-08-21T03:36:07;27.90;59.30
36652;DHT22;53334;51.976;20.144;2022-08-21T03:38:42;28.00;59.40
36652;DHT22;53334;51.976;20.144;2022-08-21T03:41:17;27.90;59.30
36652;DHT22;53334;51.976;20.144;2022-08-21T03:43:51;27.90;59.30
36652;DHT22;53334;51.976;20.144;2022-08-21T03:46:26;27.90;59.30
36652;DHT22;53334;51.976;20.144;2022-08-21T03:49:00;27.90;59.30
36652;DHT22;53334;51.976;20.144;2022-08-21T03:51:36;27.90;59.30
36652;DHT22;53334;51.976;20.144;2022-08-21T03:54:10;28.00;59.30
36652;DHT22;53334;51.976;20.144;2022-08-21T03:56:46;27.90;59.30
36652;DHT22;53334;51.976;20.144;2022-08-21T03:59:22;28.00;59.30
36652;DHT22;53334;51.976;20.144;2022-08-21T04:02:00;27.90;59.30
36652;DHT22;53334;51.976;20.144;2022-08-21T04:04:34;27.90;59.30
36652;DHT22;53334;51.976;20.144;2022-08-21T04:07:08;27.90;59.20
36652;DHT22;53334;51.976;20.144;2022-08-21T04:09:44;28.00;59.30
36652;DHT22;53334;51.976;20.144;2022-08-21T04:12:22;27.90;59.20
36652;DHT22;53334;51.976;20.144;2022-08-21T04:14:56;28.00;59.30
36652;DHT22;53334;51.976;20.144;2022-08-21T04:17:30;27.90;59.20
36652;DHT22;53334;51.976;20.144;2022-08-21T04:20:06;28.00;59.30
36652;DHT22;53334;51.976;20.144;2022-08-21T04:22:40;27.90;59.20
36652;DHT22;53334;51.976;20.144;2022-08-21T04:25:15;27.90;59.20
36652;DHT22;53334;51.976;20.144;2022-08-21T04:27:51;28.00;59.20
36652;DHT22;53334;51.976;20.144;2022-08-21T04:30:27;28.00;59.20
36652;DHT22;53334;51.976;20.144;2022-08-21T04:33:02;28.00;59.20
36652;DHT22;53334;51.976;20.144;2022-08-21T04:35:36;27.90;59.10
36652;DHT22;53334;51.976;20.144;2022-08-21T04:38:10;28.00;59.20
36652;DHT22;53334;51.976;20.144;2022-08-21T04:40:45;28.00;59.20
36652;DHT22;53334;51.976;20.144;2022-08-21T04:43:20;27.90;59.10
36652;DHT22;53334;51.976;20.144;2022-08-21T04:45:56;27.90;59.10
36652;DHT22;53334;51.976;20.144;2022-08-21T04:48:30;28.00;59.20
36652;DHT22;53334;51.976;20.144;2022-08-21T04:51:08;28.00;59.20
36652;DHT22;53334;51.976;20.144;2022-08-21T04:53:46;27.90;59.10
36652;DHT22;53334;51.976;20.144;2022-08-21T04:56:33;27.90;59.10
36652;DHT22;53334;51.976;20.144;2022-08-21T04:59:14;27.90;59.10
36652;DHT22;53334;51.976;20.144;2022-08-21T05:01:50;28.00;59.20
36652;DHT22;53334;51.976;20.144;2022-08-21T05:04:30;27.90;59.10
36652;DHT22;53334;51.976;20.144;2022-08-21T05:07:14;28.00;59.20
36652;DHT22;53334;51.976;20.144;2022-08-21T05:10:10;27.90;59.10
36652;DHT22;53334;51.976;20.144;2022-08-21T05:12:45;28.00;59.10
36652;DHT22;53334;51.976;20.144;2022-08-21T05:15:21;28.00;59.20
36652;DHT22;53334;51.976;20.144;2022-08-21T05:17:55;28.00;59.10
36652;DHT22;53334;51.976;20.144;2022-08-21T05:20:33;28.00;59.10
36652;DHT22;53334;51.976;20.144;2022-08-21T05:23:09;28.00;59.10
36652;DHT22;53334;51.976;20.144;2022-08-21T05:25:44;27.90;59.10
36652;DHT22;53334;51.976;20.144;2022-08-21T05:28:23;28.00;59.20
36652;DHT22;53334;51.976;20.144;2022-08-21T05:30:59;28.00;59.10
36652;DHT22;53334;51.976;20.144;2022-08-21T05:33:33;27.90;59.10
36652;DHT22;53334;51.976;20.144;2022-08-21T05:36:11;27.90;59.10
36652;DHT22;53334;51.976;20.144;2022-08-21T05:38:45;27.90;59.10
36652;DHT22;53334;51.976;20.144;2022-08-21T05:41:19;27.90;59.10
36652;DHT22;53334;51.976;20.144;2022-08-21T05:43:54;28.00;59.10
36652;DHT22;53334;51.976;20.144;2022-08-21T05:46:29;27.90;59.10
36652;DHT22;53334;51.976;20.144;2022-08-21T05:49:03;27.90;59.10
36652;DHT22;53334;51.976;20.144;2022-08-21T05:51:39;28.00;59.10
36652;DHT22;53334;51.976;20.144;2022-08-21T05:54:13;28.00;59.10
36652;DHT22;53334;51.976;20.144;2022-08-21T05:56:49;28.00;59.10
36652;DHT22;53334;51.976;20.144;2022-08-21T05:59:24;28.00;59.10
36652;DHT22;53334;51.976;20.144;2022-08-21T06:02:01;28.00;59.10
36652;DHT22;53334;51.976;20.144;2022-08-21T06:04:37;28.00;59.10
36652;DHT22;53334;51.976;20.144;2022-08-21T06:07:13;28.00;59.10
36652;DHT22;53334;51.976;20.144;2022-08-21T06:09:47;28.00;59.10
36652;DHT22;53334;51.976;20.144;2022-08-21T06:12:22;28.00;59.10
36652;DHT22;53334;51.976;20.144;2022-08-21T06:14:56;28.00;59.10
36652;DHT22;53334;51.976;20.144;2022-08-21T06:17:32;27.90;59.00
36652;DHT22;53334;51.976;20.144;2022-08-21T06:20:07;28.00;59.00
36652;DHT22;53334;51.976;20.144;2022-08-21T06:22:41;28.00;59.10
36652;DHT22;53334;51.976;20.144;2022-08-21T06:25:16;28.00;59.00
36652;DHT22;53334;51.976;20.144;2022-08-21T06:27:50;28.00;59.00
36652;DHT22;53334;51.976;20.144;2022-08-21T06:30:25;28.00;59.00
36652;DHT22;53334;51.976;20.144;2022-08-21T06:33:00;28.00;59.00
36652;DHT22;53334;51.976;20.144;2022-08-21T06:35:35;28.00;59.00
36652;DHT22;53334;51.976;20.144;2022-08-21T06:38:13;28.00;59.00
36652;DHT22;53334;51.976;20.144;2022-08-21T06:40:47;28.00;59.00
36652;DHT22;53334;51.976;20.144;2022-08-21T06:43:21;28.00;59.00
36652;DHT22;53334;51.976;20.144;2022-08-21T06:46:09;28.00;59.00
36652;DHT22;53334;51.976;20.144;2022-08-21T06:48:45;28.00;59.00
36652;DHT22;53334;51.976;20.144;2022-08-21T06:51:19;28.00;59.00
36652;DHT22;53334;51.976;20.144;2022-08-21T06:53:53;28.00;59.00
36652;DHT22;53334;51.976;20.144;2022-08-21T06:56:30;28.00;59.00
36652;DHT22;53334;51.976;20.144;2022-08-21T06:59:05;28.00;59.00
36652;DHT22;53334;51.976;20.144;2022-08-21T07:01:39;28.00;59.00
36652;DHT22;53334;51.976;20.144;2022-08-21T07:04:15;28.00;59.00
36652;DHT22;53334;51.976;20.144;2022-08-21T07:06:49;28.00;59.00
36652;DHT22;53334;51.976;20.144;2022-08-21T07:09:23;28.00;59.00
36652;DHT22;53334;51.976;20.144;2022-08-21T07:11:57;28.00;59.00
36652;DHT22;53334;51.976;20.144;2022-08-21T07:14:31;28.00;59.00
36652;DHT22;53334;51.976;20.144;2022-08-21T07:17:05;28.00;58.90
36652;DHT22;53334;51.976;20.144;2022-08-21T07:19:41;28.00;59.00
36652;DHT22;53334;51.976;20.144;2022-08-21T07:22:16;28.00;59.00
36652;DHT22;53334;51.976;20.144;2022-08-21T07:24:51;28.00;59.00
36652;DHT22;53334;51.976;20.144;2022-08-21T07:27:25;28.00;58.90
36652;DHT22;53334;51.976;20.144;2022-08-21T07:29:59;28.00;58.90
36652;DHT22;53334;51.976;20.144;2022-08-21T07:32:33;28.00;58.90
36652;DHT22;53334;51.976;20.144;2022-08-21T07:35:09;28.00;58.90
36652;DHT22;53334;51.976;20.144;2022-08-21T07:37:44;28.00;58.90
36652;DHT22;53334;51.976;20.144;2022-08-21T07:40:18;28.00;58.90
36652;DHT22;53334;51.976;20.144;2022-08-21T07:42:52;28.00;58.90
36652;DHT22;53334;51.976;20.144;2022-08-21T07:45:27;28.00;58.90
36652;DHT22;53334;51.976;20.144;2022-08-21T07:48:02;28.00;58.90
36652;DHT22;53334;51.976;20.144;2022-08-21T07:50:37;28.00;58.80
36652;DHT22;53334;51.976;20.144;2022-08-21T07:53:11;28.00;58.80
36652;DHT22;53334;51.976;20.144;2022-08-21T07:55:45;28.00;58.80
36652;DHT22;53334;51.976;20.144;2022-08-21T07:58:19;28.00;58.80
36652;DHT22;53334;51.976;20.144;2022-08-21T08:00:53;28.00;58.80
36652;DHT22;53334;51.976;20.144;2022-08-21T08:03:27;28.00;58.80
36652;DHT22;53334;51.976;20.144;2022-08-21T08:06:03;28.00;58.80
36652;DHT22;53334;51.976;20.144;2022-08-21T08:08:37;28.00;58.80
36652;DHT22;53334;51.976;20.144;2022-08-21T08:11:13;28.10;58.90
36652;DHT22;53334;51.976;20.144;2022-08-21T08:13:50;28.00;58.80
36652;DHT22;53334;51.976;20.144;2022-08-21T08:16:24;28.10;58.80
36652;DHT22;53334;51.976;20.144;2022-08-21T08:18:58;28.00;58.70
36652;DHT22;53334;51.976;20.144;2022-08-21T08:21:34;28.10;58.80
36652;DHT22;53334;51.976;20.144;2022-08-21T08:24:09;28.10;58.80
36652;DHT22;53334;51.976;20.144;2022-08-21T08:26:51;28.00;58.70
36652;DHT22;53334;51.976;20.144;2022-08-21T08:29:26;28.00;58.70
36652;DHT22;53334;51.976;20.144;2022-08-21T08:32:01;28.00;58.70
36652;DHT22;53334;51.976;20.144;2022-08-21T08:34:36;28.00;58.70
36652;DHT22;53334;51.976;20.144;2022-08-21T08:37:12;28.10;58.80
36652;DHT22;53334;51.976;20.144;2022-08-21T08:39:46;28.00;58.70
36652;DHT22;53334;51.976;20.144;2022-08-21T08:42:27;28.10;58.80
36652;DHT22;53334;51.976;20.144;2022-08-21T08:45:08;28.00;58.70
36652;DHT22;53334;51.976;20.144;2022-08-21T08:47:45;28.00;58.70
36652;DHT22;53334;51.976;20.144;2022-08-21T08:50:25;28.00;58.70
36652;DHT22;53334;51.976;20.144;2022-08-21T08:53:05;28.10;58.80
36652;DHT22;53334;51.976;20.144;2022-08-21T08:55:41;28.10;58.80
36652;DHT22;53334;51.976;20.144;2022-08-21T08:58:20;28.10;58.80
36652;DHT22;53334;51.976;20.144;2022-08-21T09:00:56;28.10;58.80
36652;DHT22;53334;51.976;20.144;2022-08-21T09:03:30;28.10;58.80
36652;DHT22;53334;51.976;20.144;2022-08-21T09:06:09;28.10;58.80
36652;DHT22;53334;51.976;20.144;2022-08-21T09:08:52;28.10;58.80
36652;DHT22;53334;51.976;20.144;2022-08-21T09:11:29;28.10;58.80
36652;DHT22;53334;51.976;20.144;2022-08-21T09:14:13;28.10;58.80
36652;DHT22;53334;51.976;20.144;2022-08-21T09:16:58;28.10;58.80
36652;DHT22;53334;51.976;20.144;2022-08-21T09:19:45;28.10;58.80
36652;DHT22;53334;51.976;20.144;2022-08-21T09:22:34;28.10;58.80
36652;DHT22;53334;51.976;20.144;2022-08-21T09:25:20;28.00;58.70
36652;DHT22;53334;51.976;20.144;2022-08-21T09:27:55;28.10;58.80
36652;DHT22;53334;51.976;20.144;2022-08-21T09:30:31;28.00;58.80
36652;DHT22;53334;51.976;20.144;2022-08-21T09:33:05;28.10;58.90
36652;DHT22;53334;51.976;20.144;2022-08-21T09:35:49;28.10;59.00
36652;DHT22;53334;51.976;20.144;2022-08-21T09:38:29;28.10;59.00
36652;DHT22;53334;51.976;20.144;2022-08-21T09:41:08;28.10;59.10
36652;DHT22;53334;51.976;20.144;2022-08-21T09:43:53;28.10;59.20
36652;DHT22;53334;51.976;20.144;2022-08-21T09:46:27;28.10;59.30
36652;DHT22;53334;51.976;20.144;2022-08-21T09:49:03;28.10;59.50
36652;DHT22;53334;51.976;20.144;2022-08-21T09:51:50;28.10;59.50
36652;DHT22;53334;51.976;20.144;2022-08-21T09:54:29;28.10;59.80
36652;DHT22;53334;51.976;20.144;2022-08-21T09:57:16;28.10;59.70
36652;DHT22;53334;51.976;20.144;2022-08-21T10:00:22;28.10;59.80
36652;DHT22;53334;51.976;20.144;2022-08-21T10:03:09;28.10;59.70
36652;DHT22;53334;51.976;20.144;2022-08-21T10:05:52;28.10;59.70
36652;DHT22;53334;51.976;20.144;2022-08-21T10:08:28;28.10;59.70
36652;DHT22;53334;51.976;20.144;2022-08-21T10:11:05;28.10;59.70
36652;DHT22;53334;51.976;20.144;2022-08-21T10:13:51;28.10;59.60
36652;DHT22;53334;51.976;20.144;2022-08-21T10:16:34;28.10;59.50
36652;DHT22;53334;51.976;20.144;2022-08-21T10:19:18;28.10;59.40
36652;DHT22;53334;51.976;20.144;2022-08-21T10:22:00;28.10;59.40
36652;DHT22;53334;51.976;20.144;2022-08-21T10:24:43;28.10;59.30
36652;DHT22;53334;51.976;20.144;2022-08-21T10:27:29;28.10;59.20
36652;DHT22;53334;51.976;20.144;2022-08-21T10:30:09;28.10;59.20
36652;DHT22;53334;51.976;20.144;2022-08-21T10:33:05;28.10;59.20
36652;DHT22;53334;51.976;20.144;2022-08-21T10:35:48;28.20;59.20
36652;DHT22;53334;51.976;20.144;2022-08-21T10:41:59;28.20;59.10
36652;DHT22;53334;51.976;20.144;2022-08-21T10:44:41;28.10;59.10
36652;DHT22;53334;51.976;20.144;2022-08-21T10:47:30;28.10;59.10
36652;DHT22;53334;51.976;20.144;2022-08-21T10:50:12;28.20;59.00
36652;DHT22;53334;51.976;20.144;2022-08-21T10:52:59;28.20;59.00
36652;DHT22;53334;51.976;20.144;2022-08-21T10:55:39;28.20;59.00
36652;DHT22;53334;51.976;20.144;2022-08-21T10:58:21;28.20;59.00
36652;DHT22;53334;51.976;20.144;2022-08-21T11:01:03;28.20;58.90
36652;DHT22;53334;51.976;20.144;2022-08-21T11:03:46;28.20;58.90
36652;DHT22;53334;51.976;20.144;2022-08-21T11:06:23;28.20;58.90
36652;DHT22;53334;51.976;20.144;2022-08-21T11:08:59;28.20;58.80
36652;DHT22;53334;51.976;20.144;2022-08-21T11:11:40;28.20;58.80
36652;DHT22;53334;51.976;20.144;2022-08-21T11:14:36;28.20;58.80
36652;DHT22;53334;51.976;20.144;2022-08-21T11:17:24;28.20;58.80
36652;DHT22;53334;51.976;20.144;2022-08-21T11:20:07;28.20;58.70
36652;DHT22;53334;51.976;20.144;2022-08-21T11:22:48;28.30;58.80
36652;DHT22;53334;51.976;20.144;2022-08-21T11:25:31;28.30;58.70
36652;DHT22;53334;51.976;20.144;2022-08-21T11:28:13;28.20;58.60
36652;DHT22;53334;51.976;20.144;2022-08-21T11:30:58;28.30;58.70
36652;DHT22;53334;51.976;20.144;2022-08-21T11:33:47;28.30;58.70
36652;DHT22;53334;51.976;20.144;2022-08-21T11:36:32;28.30;58.70
36652;DHT22;53334;51.976;20.144;2022-08-21T11:39:16;28.30;58.70
36652;DHT22;53334;51.976;20.144;2022-08-21T11:42:08;28.30;58.60
36652;DHT22;53334;51.976;20.144;2022-08-21T11:44:52;28.30;58.60
36652;DHT22;53334;51.976;20.144;2022-08-21T11:47:36;28.30;58.60
36652;DHT22;53334;51.976;20.144;2022-08-21T11:50:18;28.30;58.60
36652;DHT22;53334;51.976;20.144;2022-08-21T11:53:12;28.30;58.60
36652;DHT22;53334;51.976;20.144;2022-08-21T11:55:51;28.30;58.60
36652;DHT22;53334;51.976;20.144;2022-08-21T11:58:30;28.30;58.60
36652;DHT22;53334;51.976;20.144;2022-08-21T12:01:09;28.30;58.60
36652;DHT22;53334;51.976;20.144;2022-08-21T12:03:53;28.30;58.60
36652;DHT22;53334;51.976;20.144;2022-08-21T12:06:31;28.30;58.60
36652;DHT22;53334;51.976;20.144;2022-08-21T12:09:09;28.30;58.60
36652;DHT22;53334;51.976;20.144;2022-08-21T12:11:48;28.30;58.50
36652;DHT22;53334;51.976;20.144;2022-08-21T12:14:23;28.30;58.50
36652;DHT22;53334;51.976;20.144;2022-08-21T12:17:04;28.30;58.50
36652;DHT22;53334;51.976;20.144;2022-08-21T12:19:43;28.30;58.50
36652;DHT22;53334;51.976;20.144;2022-08-21T12:22:17;28.30;58.50
36652;DHT22;53334;51.976;20.144;2022-08-21T12:25:05;28.30;58.50
36652;DHT22;53334;51.976;20.144;2022-08-21T12:27:45;28.30;58.50
36652;DHT22;53334;51.976;20.144;2022-08-21T12:30:23;28.30;58.50
36652;DHT22;53334;51.976;20.144;2022-08-21T12:33:19;28.30;58.50
36652;DHT22;53334;51.976;20.144;2022-08-21T12:36:03;28.30;58.40
36652;DHT22;53334;51.976;20.144;2022-08-21T12:38:45;28.30;58.50
36652;DHT22;53334;51.976;20.144;2022-08-21T12:41:27;28.40;58.50
36652;DHT22;53334;51.976;20.144;2022-08-21T12:44:07;28.40;58.50
36652;DHT22;53334;51.976;20.144;2022-08-21T12:46:46;28.30;58.50
36652;DHT22;53334;51.976;20.144;2022-08-21T12:49:26;28.30;58.50
36652;DHT22;53334;51.976;20.144;2022-08-21T12:52:05;28.30;58.40
36652;DHT22;53334;51.976;20.144;2022-08-21T12:54:43;28.30;58.40
36652;DHT22;53334;51.976;20.144;2022-08-21T12:57:23;28.30;58.50
36652;DHT22;53334;51.976;20.144;2022-08-21T13:00:03;28.30;58.40
36652;DHT22;53334;51.976;20.144;2022-08-21T13:02:43;28.30;58.40
36652;DHT22;53334;51.976;20.144;2022-08-21T13:05:29;28.40;58.50
36652;DHT22;53334;51.976;20.144;2022-08-21T13:08:04;28.40;58.50
36652;DHT22;53334;51.976;20.144;2022-08-21T13:10:47;28.30;58.40
36652;DHT22;53334;51.976;20.144;2022-08-21T13:13:26;28.30;58.40
36652;DHT22;53334;51.976;20.144;2022-08-21T13:16:03;28.40;58.40
36652;DHT22;53334;51.976;20.144;2022-08-21T13:18:52;28.40;58.50
36652;DHT22;53334;51.976;20.144;2022-08-21T13:21:29;28.40;58.40
36652;DHT22;53334;51.976;20.144;2022-08-21T13:24:16;28.40;58.50
36652;DHT22;53334;51.976;20.144;2022-08-21T13:27:23;28.40;58.40
36652;DHT22;53334;51.976;20.144;2022-08-21T13:30:05;28.40;58.40
36652;DHT22;53334;51.976;20.144;2022-08-21T13:32:42;28.30;58.40
36652;DHT22;53334;51.976;20.144;2022-08-21T13:35:19;28.40;59.00
36652;DHT22;53334;51.976;20.144;2022-08-21T13:37:54;28.40;58.50
36652;DHT22;53334;51.976;20.144;2022-08-21T13:40:32;28.40;58.50
36652;DHT22;53334;51.976;20.144;2022-08-21T13:43:12;28.40;58.50
36652;DHT22;53334;51.976;20.144;2022-08-21T13:45:54;28.30;58.40
36652;DHT22;53334;51.976;20.144;2022-08-21T13:48:32;28.30;58.40
36652;DHT22;53334;51.976;20.144;2022-08-21T13:51:08;28.40;58.50
36652;DHT22;53334;51.976;20.144;2022-08-21T13:53:49;28.40;58.40
36652;DHT22;53334;51.976;20.144;2022-08-21T13:56:26;28.40;58.50
36652;DHT22;53334;51.976;20.144;2022-08-21T13:59:02;28.40;58.50
36652;DHT22;53334;51.976;20.144;2022-08-21T14:01:50;28.40;58.40
36652;DHT22;53334;51.976;20.144;2022-08-21T14:04:33;28.40;58.40
36652;DHT22;53334;51.976;20.144;2022-08-21T14:07:15;28.40;58.50
36652;DHT22;53334;51.976;20.144;2022-08-21T14:09:50;28.40;58.40
36652;DHT22;53334;51.976;20.144;2022-08-21T14:12:27;28.40;58.50
36652;DHT22;53334;51.976;20.144;2022-08-21T14:15:04;28.40;58.50
36652;DHT22;53334;51.976;20.144;2022-08-21T14:17:40;28.40;58.40
36652;DHT22;53334;51.976;20.144;2022-08-21T14:20:27;28.30;58.40
36652;DHT22;53334;51.976;20.144;2022-08-21T14:23:01;28.40;58.40
36652;DHT22;53334;51.976;20.144;2022-08-21T14:25:41;28.40;58.50
36652;DHT22;53334;51.976;20.144;2022-08-21T14:28:22;28.40;58.50
36652;DHT22;53334;51.976;20.144;2022-08-21T14:31:12;28.30;58.40
36652;DHT22;53334;51.976;20.144;2022-08-21T14:33:48;28.40;58.50
36652;DHT22;53334;51.976;20.144;2022-08-21T14:36:22;28.40;58.50
36652;DHT22;53334;51.976;20.144;2022-08-21T14:38:56;28.40;58.50
36652;DHT22;53334;51.976;20.144;2022-08-21T14:41:30;28.40;58.50
36652;DHT22;53334;51.976;20.144;2022-08-21T14:44:05;28.40;58.50
36652;DHT22;53334;51.976;20.144;2022-08-21T14:46:41;28.40;58.50
36652;DHT22;53334;51.976;20.144;2022-08-21T14:49:29;28.30;58.40
36652;DHT22;53334;51.976;20.144;2022-08-21T14:52:04;28.30;58.50
36652;DHT22;53334;51.976;20.144;2022-08-21T14:54:38;28.40;58.50
36652;DHT22;53334;51.976;20.144;2022-08-21T14:57:12;28.30;58.50
36652;DHT22;53334;51.976;20.144;2022-08-21T14:59:46;28.40;58.50
36652;DHT22;53334;51.976;20.144;2022-08-21T15:02:20;28.30;58.50
36652;DHT22;53334;51.976;20.144;2022-08-21T15:04:55;28.30;58.50
36652;DHT22;53334;51.976;20.144;2022-08-21T15:07:29;28.30;58.50
36652;DHT22;53334;51.976;20.144;2022-08-21T15:10:04;28.30;58.50
36652;DHT22;53334;51.976;20.144;2022-08-21T15:12:41;28.30;58.50
36652;DHT22;53334;51.976;20.144;2022-08-21T15:15:15;28.40;58.50
36652;DHT22;53334;51.976;20.144;2022-08-21T15:17:49;28.40;58.50
36652;DHT22;53334;51.976;20.144;2022-08-21T15:20:25;28.40;58.50
36652;DHT22;53334;51.976;20.144;2022-08-21T15:22:59;28.40;58.50
36652;DHT22;53334;51.976;20.144;2022-08-21T15:25:33;28.30;58.40
36652;DHT22;53334;51.976;20.144;2022-08-21T15:28:08;28.40;58.50
36652;DHT22;53334;51.976;20.144;2022-08-21T15:30:44;28.30;58.40
36652;DHT22;53334;51.976;20.144;2022-08-21T15:33:19;28.40;58.40
36652;DHT22;53334;51.976;20.144;2022-08-21T15:35:55;28.30;58.30
36652;DHT22;53334;51.976;20.144;2022-08-21T15:38:29;28.30;58.30
36652;DHT22;53334;51.976;20.144;2022-08-21T15:41:03;28.30;58.30
36652;DHT22;53334;51.976;20.144;2022-08-21T15:43:41;28.40;58.40
36652;DHT22;53334;51.976;20.144;2022-08-21T15:46:17;28.40;58.30
36652;DHT22;53334;51.976;20.144;2022-08-21T15:48:52;28.40;58.40
36652;DHT22;53334;51.976;20.144;2022-08-21T15:51:33;28.40;58.30
36652;DHT22;53334;51.976;20.144;2022-08-21T15:54:16;28.40;58.30
36652;DHT22;53334;51.976;20.144;2022-08-21T15:56:51;28.40;58.30
36652;DHT22;53334;51.976;20.144;2022-08-21T15:59:25;28.40;58.30
36652;DHT22;53334;51.976;20.144;2022-08-21T16:01:59;28.40;58.20
36652;DHT22;53334;51.976;20.144;2022-08-21T16:04:34;28.30;58.20
36652;DHT22;53334;51.976;20.144;2022-08-21T16:07:09;28.40;58.30
36652;DHT22;53334;51.976;20.144;2022-08-21T16:09:43;28.40;58.30
36652;DHT22;53334;51.976;20.144;2022-08-21T16:12:21;28.40;58.20
36652;DHT22;53334;51.976;20.144;2022-08-21T16:14:56;28.30;58.20
36652;DHT22;53334;51.976;20.144;2022-08-21T16:17:32;28.30;58.20
36652;DHT22;53334;51.976;20.144;2022-08-21T16:20:09;28.40;58.20
36652;DHT22;53334;51.976;20.144;2022-08-21T16:22:45;28.40;58.20